sensor_id;sensor_type;location;lat;lon;timestamp;P1;durP1;ratioP1;P2;durP2;ratioP2
23990;SDS011;12205;50.600;4.608;2023-03-26T00:01:21;13.85;;;1.50;;
23990;SDS011;12205;50.600;4.608;2023-03-26T00:03:50;14.38;;;1.25;;
23990;SDS011;12205;50.600;4.608;2023-03-26T00:06:22;7.82;;;1.17;;
23990;SDS011;12205;50.600;4.608;2023-03-26T00:08:54;11.50;;;1.55;;
23990;SDS011;12205;50.600;4.608;2023-03-26T00:11:23;9.23;;;1.13;;
23990;SDS011;12205;50.600;4.608;2023-03-26T00:13:54;19.52;;;1.88;;
23990;SDS011;12205;50.600;4.608;2023-03-26T00:16:23;8.43;;;1.15;;
23990;SDS011;12205;50.600;4.608;2023-03-26T00:18:52;13.20;;;1.40;;
23990;SDS011;12205;50.600;4.608;2023-03-26T00:21:22;10.43;;;1.38;;
23990;SDS011;12205;50.600;4.608;2023-03-26T00:23:51;13.30;;;1.52;;
23990;SDS011;12205;50.600;4.608;2023-03-26T00:26:20;16.67;;;2.00;;
23990;SDS011;12205;50.600;4.608;2023-03-26T00:28:49;16.20;;;2.05;;
23990;SDS011;12205;50.600;4.608;2023-03-26T00:31:16;12.75;;;1.60;;
23990;SDS011;12205;50.600;4.608;2023-03-26T00:33:44;12.68;;;1.52;;
23990;SDS011;12205;50.600;4.608;2023-03-26T00:36:13;13.38;;;1.35;;
23990;SDS011;12205;50.600;4.608;2023-03-26T00:38:44;9.77;;;1.13;;
23990;SDS011;12205;50.600;4.608;2023-03-26T00:41:13;9.80;;;0.82;;
23990;SDS011;12205;50.600;4.608;2023-03-26T00:43:51;13.00;;;1.75;;
23990;SDS011;12205;50.600;4.608;2023-03-26T00:46:20;14.27;;;1.67;;
23990;SDS011;12205;50.600;4.608;2023-03-26T00:48:49;12.52;;;1.33;;
23990;SDS011;12205;50.600;4.608;2023-03-26T00:51:16;10.60;;;0.95;;
23990;SDS011;12205;50.600;4.608;2023-03-26T00:53:46;10.95;;;1.10;;
23990;SDS011;12205;50.600;4.608;2023-03-26T00:56:15;12.60;;;1.20;;
23990;SDS011;12205;50.600;4.608;2023-03-26T00:58:43;12.32;;;1.23;;
23990;SDS011;12205;50.600;4.608;2023-03-26T01:01:13;13.75;;;1.50;;
23990;SDS011;12205;50.600;4.608;2023-03-26T01:03:45;7.28;;;1.05;;
23990;SDS011;12205;50.600;4.608;2023-03-26T01:06:16;13.70;;;1.20;;
23990;SDS011;12205;50.600;4.608;2023-03-26T01:08:52;15.18;;;1.25;;
23990;SDS011;12205;50.600;4.608;2023-03-26T01:11:25;11.05;;;1.08;;
23990;SDS011;12205;50.600;4.608;2023-03-26T01:13:56;13.25;;;1.25;;
23990;SDS011;12205;50.600;4.608;2023-03-26T01:16:30;11.27;;;1.50;;
23990;SDS011;12205;50.600;4.608;2023-03-26T01:19:03;10.82;;;1.20;;
23990;SDS011;12205;50.600;4.608;2023-03-26T01:21:37;13.90;;;1.13;;
23990;SDS011;12205;50.600;4.608;2023-03-26T01:24:07;14.48;;;1.63;;
23990;SDS011;12205;50.600;4.608;2023-03-26T01:26:45;8.43;;;0.87;;
23990;SDS011;12205;50.600;4.608;2023-03-26T01:29:29;12.18;;;1.10;;
23990;SDS011;12205;50.600;4.608;2023-03-26T01:32:07;11.95;;;1.05;;
23990;SDS011;12205;50.600;4.608;2023-03-26T01:34:51;11.07;;;1.27;;
23990;SDS011;12205;50.600;4.608;2023-03-26T01:37:34;11.88;;;1.20;;
23990;SDS011;12205;50.600;4.608;2023-03-26T01:40:20;14.80;;;1.45;;
23990;SDS011;12205;50.600;4.608;2023-03-26T01:42:55;6.57;;;0.82;;
23990;SDS011;12205;50.600;4.608;2023-03-26T01:45:33;6.00;;;0.73;;
23990;SDS011;12205;50.600;4.608;2023-03-26T01:48:04;6.88;;;0.90;;
23990;SDS011;12205;50.600;4.608;2023-03-26T01:50:32;9.98;;;0.98;;
23990;SDS011;12205;50.600;4.608;2023-03-26T01:52:59;7.43;;;0.98;;
23990;SDS011;12205;50.600;4.608;2023-03-26T01:55:30;6.18;;;0.80;;
23990;SDS011;12205;50.600;4.608;2023-03-26T01:58:15;12.73;;;1.65;;
23990;SDS011;12205;50.600;4.608;2023-03-26T02:00:54;12.95;;;1.15;;
23990;SDS011;12205;50.600;4.608;2023-03-26T02:03:37;12.02;;;1.10;;
23990;SDS011;12205;50.600;4.608;2023-03-26T02:06:13;6.07;;;0.80;;
23990;SDS011;12205;50.600;4.608;2023-03-26T02:08:49;5.95;;;0.90;;
23990;SDS011;12205;50.600;4.608;2023-03-26T02:11:23;7.82;;;1.17;;
23990;SDS011;12205;50.600;4.608;2023-03-26T02:13:50;7.05;;;1.00;;
23990;SDS011;12205;50.600;4.608;2023-03-26T02:16:19;10.10;;;1.08;;
23990;SDS011;12205;50.600;4.608;2023-03-26T02:18:46;14.63;;;1.70;;
23990;SDS011;12205;50.600;4.608;2023-03-26T02:21:20;9.10;;;1.10;;
23990;SDS011;12205;50.600;4.608;2023-03-26T02:23:51;11.83;;;1.83;;
23990;SDS011;12205;50.600;4.608;2023-03-26T02:26:30;9.63;;;1.30;;
23990;SDS011;12205;50.600;4.608;2023-03-26T02:29:10;7.13;;;0.82;;
23990;SDS011;12205;50.600;4.608;2023-03-26T02:31:43;4.07;;;0.60;;
23990;SDS011;12205;50.600;4.608;2023-03-26T02:34:12;9.85;;;0.80;;
23990;SDS011;12205;50.600;4.608;2023-03-26T02:36:47;12.23;;;1.25;;
23990;SDS011;12205;50.600;4.608;2023-03-26T02:39:15;12.40;;;1.10;;
23990;SDS011;12205;50.600;4.608;2023-03-26T02:41:51;12.30;;;1.15;;
23990;SDS011;12205;50.600;4.608;2023-03-26T02:44:19;9.07;;;0.90;;
23990;SDS011;12205;50.600;4.608;2023-03-26T02:47:12;8.43;;;1.15;;
23990;SDS011;12205;50.600;4.608;2023-03-26T02:49:51;11.07;;;1.27;;
23990;SDS011;12205;50.600;4.608;2023-03-26T02:52:42;7.53;;;0.95;;
23990;SDS011;12205;50.600;4.608;2023-03-26T02:55:09;9.98;;;1.20;;
23990;SDS011;12205;50.600;4.608;2023-03-26T02:57:40;9.88;;;1.05;;
23990;SDS011;12205;50.600;4.608;2023-03-26T03:00:16;6.90;;;1.08;;
23990;SDS011;12205;50.600;4.608;2023-03-26T03:02:46;4.82;;;0.95;;
23990;SDS011;12205;50.600;4.608;2023-03-26T03:05:33;6.68;;;1.20;;
23990;SDS011;12205;50.600;4.608;2023-03-26T03:08:10;9.80;;;1.13;;
23990;SDS011;12205;50.600;4.608;2023-03-26T03:10:56;19.58;;;1.73;;
23990;SDS011;12205;50.600;4.608;2023-03-26T03:13:47;14.98;;;1.20;;
23990;SDS011;12205;50.600;4.608;2023-03-26T03:16:18;13.57;;;1.42;;
23990;SDS011;12205;50.600;4.608;2023-03-26T03:18:46;6.50;;;0.93;;
23990;SDS011;12205;50.600;4.608;2023-03-26T03:21:23;14.63;;;1.45;;
23990;SDS011;12205;50.600;4.608;2023-03-26T03:23:52;10.25;;;1.20;;
23990;SDS011;12205;50.600;4.608;2023-03-26T03:26:21;10.25;;;1.15;;
23990;SDS011;12205;50.600;4.608;2023-03-26T03:28:54;9.10;;;0.80;;
23990;SDS011;12205;50.600;4.608;2023-03-26T03:31:23;7.63;;;1.00;;
23990;SDS011;12205;50.600;4.608;2023-03-26T03:33:57;5.93;;;0.95;;
23990;SDS011;12205;50.600;4.608;2023-03-26T03:36:26;15.10;;;1.20;;
23990;SDS011;12205;50.600;4.608;2023-03-26T03:39:03;13.60;;;1.20;;
23990;SDS011;12205;50.600;4.608;2023-03-26T03:41:32;8.80;;;1.08;;
23990;SDS011;12205;50.600;4.608;2023-03-26T03:44:04;9.73;;;0.93;;
23990;SDS011;12205;50.600;4.608;2023-03-26T03:46:32;8.98;;;1.10;;
23990;SDS011;12205;50.600;4.608;2023-03-26T03:48:59;6.78;;;0.63;;
23990;SDS011;12205;50.600;4.608;2023-03-26T03:51:32;12.30;;;1.33;;
23990;SDS011;12205;50.600;4.608;2023-03-26T03:54:18;6.90;;;0.80;;
23990;SDS011;12205;50.600;4.608;2023-03-26T03:56:45;9.23;;;0.85;;
23990;SDS011;12205;50.600;4.608;2023-03-26T03:59:17;11.70;;;1.00;;
23990;SDS011;12205;50.600;4.608;2023-03-26T04:01:45;10.15;;;0.73;;
23990;SDS011;12205;50.600;4.608;2023-03-26T04:04:32;8.70;;;0.95;;
23990;SDS011;12205;50.600;4.608;2023-03-26T04:07:02;11.07;;;1.10;;
23990;SDS011;12205;50.600;4.608;2023-03-26T04:09:46;12.93;;;1.15;;
23990;SDS011;12205;50.600;4.608;2023-03-26T04:12:16;8.60;;;0.70;;
23990;SDS011;12205;50.600;4.608;2023-03-26T04:14:52;8.95;;;1.00;;
23990;SDS011;12205;50.600;4.608;2023-03-26T04:17:20;12.93;;;1.38;;
23990;SDS011;12205;50.600;4.608;2023-03-26T04:19:52;11.77;;;1.00;;
23990;SDS011;12205;50.600;4.608;2023-03-26T04:22:20;13.63;;;1.30;;
23990;SDS011;12205;50.600;4.608;2023-03-26T04:24:58;11.02;;;0.90;;
23990;SDS011;12205;50.600;4.608;2023-03-26T04:27:27;8.30;;;0.63;;
23990;SDS011;12205;50.600;4.608;2023-03-26T04:30:23;10.48;;;0.90;;
23990;SDS011;12205;50.600;4.608;2023-03-26T04:33:11;15.25;;;1.65;;
23990;SDS011;12205;50.600;4.608;2023-03-26T04:35:40;12.38;;;0.95;;
23990;SDS011;12205;50.600;4.608;2023-03-26T04:38:11;8.00;;;1.00;;
23990;SDS011;12205;50.600;4.608;2023-03-26T04:40:43;7.75;;;0.85;;
23990;SDS011;12205;50.600;4.608;2023-03-26T04:43:35;8.35;;;0.95;;
23990;SDS011;12205;50.600;4.608;2023-03-26T04:46:18;9.07;;;0.90;;
23990;SDS011;12205;50.600;4.608;2023-03-26T04:48:57;8.90;;;0.85;;
23990;SDS011;12205;50.600;4.608;2023-03-26T04:51:26;14.82;;;1.33;;
23990;SDS011;12205;50.600;4.608;2023-03-26T04:54:06;6.20;;;0.70;;
23990;SDS011;12205;50.600;4.608;2023-03-26T04:56:49;7.32;;;0.82;;
23990;SDS011;12205;50.600;4.608;2023-03-26T04:59:36;10.25;;;1.30;;
23990;SDS011;12205;50.600;4.608;2023-03-26T05:02:10;6.95;;;0.95;;
23990;SDS011;12205;50.600;4.608;2023-03-26T05:04:52;8.75;;;0.90;;
23990;SDS011;12205;50.600;4.608;2023-03-26T05:07:22;11.52;;;1.25;;
23990;SDS011;12205;50.600;4.608;2023-03-26T05:09:53;3.80;;;0.67;;
23990;SDS011;12205;50.600;4.608;2023-03-26T05:12:30;7.47;;;0.90;;
23990;SDS011;12205;50.600;4.608;2023-03-26T05:15:09;9.20;;;0.80;;
23990;SDS011;12205;50.600;4.608;2023-03-26T05:17:50;9.23;;;1.00;;
23990;SDS011;12205;50.600;4.608;2023-03-26T05:20:29;10.95;;;0.95;;
23990;SDS011;12205;50.600;4.608;2023-03-26T05:22:57;10.77;;;1.02;;
23990;SDS011;12205;50.600;4.608;2023-03-26T05:25:28;8.43;;;1.08;;
23990;SDS011;12205;50.600;4.608;2023-03-26T05:27:56;6.32;;;0.68;;
23990;SDS011;12205;50.600;4.608;2023-03-26T05:30:30;3.50;;;0.60;;
23990;SDS011;12205;50.600;4.608;2023-03-26T05:33:00;6.95;;;0.98;;
23990;SDS011;12205;50.600;4.608;2023-03-26T05:35:34;13.40;;;1.52;;
23990;SDS011;12205;50.600;4.608;2023-03-26T05:38:02;6.82;;;0.80;;
23990;SDS011;12205;50.600;4.608;2023-03-26T05:40:29;6.22;;;0.88;;
23990;SDS011;12205;50.600;4.608;2023-03-26T05:42:58;5.57;;;0.55;;
23990;SDS011;12205;50.600;4.608;2023-03-26T05:45:35;6.40;;;0.50;;
23990;SDS011;12205;50.600;4.608;2023-03-26T05:48:17;9.97;;;1.10;;
23990;SDS011;12205;50.600;4.608;2023-03-26T05:50:46;5.85;;;0.70;;
23990;SDS011;12205;50.600;4.608;2023-03-26T05:53:13;5.57;;;0.65;;
23990;SDS011;12205;50.600;4.608;2023-03-26T05:56:01;5.00;;;0.70;;
23990;SDS011;12205;50.600;4.608;2023-03-26T05:58:47;3.00;;;0.30;;
23990;SDS011;12205;50.600;4.608;2023-03-26T06:01:34;6.88;;;0.60;;
23990;SDS011;12205;50.600;4.608;2023-03-26T06:04:21;2.33;;;0.30;;
23990;SDS011;12205;50.600;4.608;2023-03-26T06:07:07;1.98;;;0.30;;
23990;SDS011;12205;50.600;4.608;2023-03-26T06:09:35;3.13;;;0.40;;
23990;SDS011;12205;50.600;4.608;2023-03-26T06:12:04;3.33;;;0.45;;
23990;SDS011;12205;50.600;4.608;2023-03-26T06:14:31;6.22;;;0.50;;
23990;SDS011;12205;50.600;4.608;2023-03-26T06:17:09;2.13;;;0.40;;
23990;SDS011;12205;50.600;4.608;2023-03-26T06:19:56;2.30;;;0.40;;
23990;SDS011;12205;50.600;4.608;2023-03-26T06:22:33;4.38;;;0.30;;
23990;SDS011;12205;50.600;4.608;2023-03-26T06:25:16;2.78;;;0.30;;
23990;SDS011;12205;50.600;4.608;2023-03-26T06:28:02;2.08;;;0.30;;
23990;SDS011;12205;50.600;4.608;2023-03-26T06:31:05;2.70;;;0.30;;
23990;SDS011;12205;50.600;4.608;2023-03-26T06:33:40;2.15;;;0.40;;
23990;SDS011;12205;50.600;4.608;2023-03-26T06:36:11;4.05;;;0.30;;
23990;SDS011;12205;50.600;4.608;2023-03-26T06:38:38;3.28;;;0.20;;
23990;SDS011;12205;50.600;4.608;2023-03-26T06:41:07;3.28;;;0.20;;
23990;SDS011;12205;50.600;4.608;2023-03-26T06:43:52;1.63;;;0.40;;
23990;SDS011;12205;50.600;4.608;2023-03-26T06:46:20;2.03;;;0.20;;
23990;SDS011;12205;50.600;4.608;2023-03-26T06:49:06;2.83;;;0.30;;
23990;SDS011;12205;50.600;4.608;2023-03-26T06:51:40;1.73;;;0.22;;
23990;SDS011;12205;50.600;4.608;2023-03-26T06:54:26;2.13;;;0.45;;
23990;SDS011;12205;50.600;4.608;2023-03-26T06:57:00;2.30;;;0.32;;
23990;SDS011;12205;50.600;4.608;2023-03-26T06:59:53;2.38;;;0.45;;
23990;SDS011;12205;50.600;4.608;2023-03-26T07:02:39;2.50;;;0.32;;
23990;SDS011;12205;50.600;4.608;2023-03-26T07:05:25;1.10;;;0.30;;
23990;SDS011;12205;50.600;4.608;2023-03-26T07:08:12;1.67;;;0.22;;
23990;SDS011;12205;50.600;4.608;2023-03-26T07:10:58;1.90;;;0.40;;
23990;SDS011;12205;50.600;4.608;2023-03-26T07:13:44;1.50;;;0.20;;
23990;SDS011;12205;50.600;4.608;2023-03-26T07:16:20;2.15;;;0.50;;
23990;SDS011;12205;50.600;4.608;2023-03-26T07:19:26;4.68;;;0.40;;
23990;SDS011;12205;50.600;4.608;2023-03-26T07:21:53;1.38;;;0.40;;
23990;SDS011;12205;50.600;4.608;2023-03-26T07:24:41;2.17;;;0.40;;
23990;SDS011;12205;50.600;4.608;2023-03-26T07:27:34;2.30;;;0.43;;
23990;SDS011;12205;50.600;4.608;2023-03-26T07:30:11;0.77;;;0.20;;
23990;SDS011;12205;50.600;4.608;2023-03-26T07:32:54;1.83;;;0.35;;
23990;SDS011;12205;50.600;4.608;2023-03-26T07:35:42;0.70;;;0.20;;
23990;SDS011;12205;50.600;4.608;2023-03-26T07:38:40;1.52;;;0.40;;
23990;SDS011;12205;50.600;4.608;2023-03-26T07:41:58;2.33;;;0.30;;
23990;SDS011;12205;50.600;4.608;2023-03-26T07:44:56;2.22;;;0.20;;
23990;SDS011;12205;50.600;4.608;2023-03-26T07:47:58;0.77;;;0.25;;
23990;SDS011;12205;50.600;4.608;2023-03-26T07:50:45;2.47;;;0.28;;
23990;SDS011;12205;50.600;4.608;2023-03-26T07:53:33;1.38;;;0.32;;
23990;SDS011;12205;50.600;4.608;2023-03-26T07:56:33;1.83;;;0.20;;
23990;SDS011;12205;50.600;4.608;2023-03-26T07:59:32;2.80;;;0.45;;
23990;SDS011;12205;50.600;4.608;2023-03-26T08:02:30;2.00;;;0.25;;
23990;SDS011;12205;50.600;4.608;2023-03-26T08:05:36;5.97;;;0.50;;
23990;SDS011;12205;50.600;4.608;2023-03-26T08:08:23;2.25;;;0.30;;
23990;SDS011;12205;50.600;4.608;2023-03-26T08:11:27;2.10;;;0.40;;
23990;SDS011;12205;50.600;4.608;2023-03-26T08:14:07;2.65;;;0.30;;
23990;SDS011;12205;50.600;4.608;2023-03-26T08:16:54;1.77;;;0.40;;
23990;SDS011;12205;50.600;4.608;2023-03-26T08:19:34;0.85;;;0.40;;
23990;SDS011;12205;50.600;4.608;2023-03-26T08:22:14;1.30;;;0.30;;
23990;SDS011;12205;50.600;4.608;2023-03-26T08:24:56;3.13;;;0.30;;
23990;SDS011;12205;50.600;4.608;2023-03-26T08:27:59;4.38;;;0.65;;
23990;SDS011;12205;50.600;4.608;2023-03-26T08:30:41;3.58;;;0.30;;
23990;SDS011;12205;50.600;4.608;2023-03-26T08:33:11;1.38;;;0.20;;
23990;SDS011;12205;50.600;4.608;2023-03-26T08:35:42;3.10;;;0.30;;
23990;SDS011;12205;50.600;4.608;2023-03-26T08:38:10;0.40;;;0.10;;
23990;SDS011;12205;50.600;4.608;2023-03-26T08:40:48;2.08;;;0.28;;
23990;SDS011;12205;50.600;4.608;2023-03-26T08:47:39;0.25;;;0.10;;
23990;SDS011;12205;50.600;4.608;2023-03-26T08:53:38;0.63;;;0.20;;
23990;SDS011;12205;50.600;4.608;2023-03-26T08:56:50;2.55;;;0.30;;
23990;SDS011;12205;50.600;4.608;2023-03-26T08:59:36;4.25;;;0.43;;
23990;SDS011;12205;50.600;4.608;2023-03-26T09:02:50;3.35;;;0.30;;
23990;SDS011;12205;50.600;4.608;2023-03-26T09:05:53;0.50;;;0.20;;
23990;SDS011;12205;50.600;4.608;2023-03-26T09:09:02;2.40;;;0.40;;
23990;SDS011;12205;50.600;4.608;2023-03-26T09:12:41;1.90;;;0.30;;
23990;SDS011;12205;50.600;4.608;2023-03-26T09:15:45;1.27;;;0.20;;
23990;SDS011;12205;50.600;4.608;2023-03-26T09:19:01;1.90;;;0.30;;
23990;SDS011;12205;50.600;4.608;2023-03-26T09:25:30;0.77;;;0.10;;
23990;SDS011;12205;50.600;4.608;2023-03-26T09:31:53;3.83;;;0.28;;
23990;SDS011;12205;50.600;4.608;2023-03-26T09:34:59;0.73;;;0.30;;
23990;SDS011;12205;50.600;4.608;2023-03-26T09:37:44;1.42;;;0.20;;
23990;SDS011;12205;50.600;4.608;2023-03-26T09:40:27;2.67;;;0.10;;
23990;SDS011;12205;50.600;4.608;2023-03-26T09:43:23;2.22;;;0.20;;
23990;SDS011;12205;50.600;4.608;2023-03-26T09:46:25;2.60;;;0.20;;
23990;SDS011;12205;50.600;4.608;2023-03-26T09:49:07;2.42;;;0.32;;
23990;SDS011;12205;50.600;4.608;2023-03-26T09:52:11;0.90;;;0.10;;
23990;SDS011;12205;50.600;4.608;2023-03-26T09:55:17;1.67;;;0.40;;
23990;SDS011;12205;50.600;4.608;2023-03-26T09:58:03;4.47;;;0.30;;
23990;SDS011;12205;50.600;4.608;2023-03-26T10:01:09;2.30;;;0.28;;
23990;SDS011;12205;50.600;4.608;2023-03-26T10:03:50;1.75;;;0.30;;
23990;SDS011;12205;50.600;4.608;2023-03-26T10:06:38;2.22;;;0.30;;
23990;SDS011;12205;50.600;4.608;2023-03-26T10:09:28;1.75;;;0.50;;
23990;SDS011;12205;50.600;4.608;2023-03-26T10:12:12;2.33;;;0.38;;
23990;SDS011;12205;50.600;4.608;2023-03-26T10:14:59;2.30;;;0.60;;
23990;SDS011;12205;50.600;4.608;2023-03-26T10:17:45;5.22;;;0.68;;
23990;SDS011;12205;50.600;4.608;2023-03-26T10:20:32;3.85;;;1.20;;
23990;SDS011;12205;50.600;4.608;2023-03-26T10:26:52;4.03;;;0.80;;
23990;SDS011;12205;50.600;4.608;2023-03-26T10:29:53;7.70;;;1.50;;
23990;SDS011;12205;50.600;4.608;2023-03-26T10:32:49;3.72;;;0.88;;
23990;SDS011;12205;50.600;4.608;2023-03-26T10:35:35;4.03;;;0.90;;
23990;SDS011;12205;50.600;4.608;2023-03-26T10:38:16;2.60;;;0.60;;
23990;SDS011;12205;50.600;4.608;2023-03-26T10:41:01;3.70;;;0.65;;
23990;SDS011;12205;50.600;4.608;2023-03-26T10:43:44;1.65;;;0.28;;
23990;SDS011;12205;50.600;4.608;2023-03-26T10:46:45;0.98;;;0.25;;
23990;SDS011;12205;50.600;4.608;2023-03-26T10:50:02;1.27;;;0.30;;
23990;SDS011;12205;50.600;4.608;2023-03-26T10:52:57;0.47;;;0.10;;
23990;SDS011;12205;50.600;4.608;2023-03-26T10:55:32;0.20;;;0.10;;
23990;SDS011;12205;50.600;4.608;2023-03-26T10:58:07;0.47;;;0.10;;
23990;SDS011;12205;50.600;4.608;2023-03-26T11:00:42;0.30;;;0.10;;
23990;SDS011;12205;50.600;4.608;2023-03-26T11:06:22;3.20;;;0.22;;
23990;SDS011;12205;50.600;4.608;2023-03-26T11:09:04;0.17;;;0.00;;
23990;SDS011;12205;50.600;4.608;2023-03-26T11:11:45;0.10;;;0.05;;
23990;SDS011;12205;50.600;4.608;2023-03-26T11:14:22;1.23;;;0.10;;
23990;SDS011;12205;50.600;4.608;2023-03-26T11:16:57;1.33;;;0.10;;
23990;SDS011;12205;50.600;4.608;2023-03-26T11:19:36;0.20;;;0.10;;
23990;SDS011;12205;50.600;4.608;2023-03-26T11:22:16;0.65;;;0.10;;
23990;SDS011;12205;50.600;4.608;2023-03-26T11:25:07;1.23;;;0.10;;
23990;SDS011;12205;50.600;4.608;2023-03-26T11:28:02;0.63;;;0.10;;
23990;SDS011;12205;50.600;4.608;2023-03-26T11:30:51;1.50;;;0.43;;
23990;SDS011;12205;50.600;4.608;2023-03-26T11:33:27;0.38;;;0.10;;
23990;SDS011;12205;50.600;4.608;2023-03-26T11:36:01;1.27;;;0.15;;
23990;SDS011;12205;50.600;4.608;2023-03-26T11:38:35;0.88;;;0.10;;
23990;SDS011;12205;50.600;4.608;2023-03-26T11:41:11;2.47;;;0.20;;
23990;SDS011;12205;50.600;4.608;2023-03-26T11:43:55;0.60;;;0.10;;
23990;SDS011;12205;50.600;4.608;2023-03-26T11:46:28;0.47;;;0.10;;
23990;SDS011;12205;50.600;4.608;2023-03-26T11:48:58;0.77;;;0.10;;
23990;SDS011;12205;50.600;4.608;2023-03-26T11:51:32;0.40;;;0.20;;
23990;SDS011;12205;50.600;4.608;2023-03-26T11:54:02;0.45;;;0.00;;
23990;SDS011;12205;50.600;4.608;2023-03-26T11:56:33;0.10;;;0.00;;
23990;SDS011;12205;50.600;4.608;2023-03-26T11:59:09;0.65;;;0.20;;
23990;SDS011;12205;50.600;4.608;2023-03-26T12:01:41;0.40;;;0.15;;
23990;SDS011;12205;50.600;4.608;2023-03-26T12:04:17;0.17;;;0.08;;
23990;SDS011;12205;50.600;4.608;2023-03-26T12:06:52;0.10;;;0.00;;
23990;SDS011;12205;50.600;4.608;2023-03-26T12:09:22;0.38;;;0.10;;
23990;SDS011;12205;50.600;4.608;2023-03-26T12:11:53;0.93;;;0.10;;
23990;SDS011;12205;50.600;4.608;2023-03-26T12:14:29;0.28;;;0.10;;
23990;SDS011;12205;50.600;4.608;2023-03-26T12:17:01;0.10;;;0.00;;
23990;SDS011;12205;50.600;4.608;2023-03-26T12:19:36;0.88;;;0.13;;
23990;SDS011;12205;50.600;4.608;2023-03-26T12:25:01;2.88;;;0.35;;
23990;SDS011;12205;50.600;4.608;2023-03-26T12:27:42;1.55;;;0.50;;
23990;SDS011;12205;50.600;4.608;2023-03-26T12:30:18;0.93;;;0.30;;
23990;SDS011;12205;50.600;4.608;2023-03-26T12:32:50;0.90;;;0.28;;
23990;SDS011;12205;50.600;4.608;2023-03-26T12:35:22;1.02;;;0.35;;
23990;SDS011;12205;50.600;4.608;2023-03-26T12:38:12;1.65;;;0.40;;
23990;SDS011;12205;50.600;4.608;2023-03-26T12:40:46;3.40;;;0.70;;
23990;SDS011;12205;50.600;4.608;2023-03-26T12:43:21;0.55;;;0.20;;
23990;SDS011;12205;50.600;4.608;2023-03-26T12:45:56;0.50;;;0.20;;
23990;SDS011;12205;50.600;4.608;2023-03-26T12:48:23;1.35;;;0.20;;
23990;SDS011;12205;50.600;4.608;2023-03-26T12:50:56;0.60;;;0.15;;
23990;SDS011;12205;50.600;4.608;2023-03-26T12:53:44;2.17;;;0.20;;
23990;SDS011;12205;50.600;4.608;2023-03-26T12:56:50;0.75;;;0.20;;
23990;SDS011;12205;50.600;4.608;2023-03-26T12:59:43;0.70;;;0.10;;
23990;SDS011;12205;50.600;4.608;2023-03-26T13:05:37;0.60;;;0.20;;
23990;SDS011;12205;50.600;4.608;2023-03-26T13:08:25;0.60;;;0.13;;
23990;SDS011;12205;50.600;4.608;2023-03-26T13:11:19;3.08;;;0.45;;
23990;SDS011;12205;50.600;4.608;2023-03-26T13:14:03;1.35;;;0.28;;
23990;SDS011;12205;50.600;4.608;2023-03-26T13:16:54;0.98;;;0.20;;
23990;SDS011;12205;50.600;4.608;2023-03-26T13:19:31;0.93;;;0.20;;
23990;SDS011;12205;50.600;4.608;2023-03-26T13:22:13;0.75;;;0.20;;
23990;SDS011;12205;50.600;4.608;2023-03-26T13:24:52;2.10;;;0.25;;
23990;SDS011;12205;50.600;4.608;2023-03-26T13:27:40;1.30;;;0.30;;
23990;SDS011;12205;50.600;4.608;2023-03-26T13:30:22;1.80;;;0.50;;
23990;SDS011;12205;50.600;4.608;2023-03-26T13:35:54;0.63;;;0.25;;
23990;SDS011;12205;50.600;4.608;2023-03-26T13:38:33;1.58;;;0.30;;
23990;SDS011;12205;50.600;4.608;2023-03-26T13:41:17;2.47;;;0.60;;
23990;SDS011;12205;50.600;4.608;2023-03-26T13:44:00;2.05;;;0.68;;
23990;SDS011;12205;50.600;4.608;2023-03-26T13:46:37;0.40;;;0.20;;
23990;SDS011;12205;50.600;4.608;2023-03-26T13:49:13;1.85;;;0.30;;
23990;SDS011;12205;50.600;4.608;2023-03-26T13:52:01;0.95;;;0.30;;
23990;SDS011;12205;50.600;4.608;2023-03-26T13:54:36;1.73;;;0.40;;
23990;SDS011;12205;50.600;4.608;2023-03-26T13:57:13;1.77;;;0.20;;
23990;SDS011;12205;50.600;4.608;2023-03-26T13:59:49;1.38;;;0.45;;
23990;SDS011;12205;50.600;4.608;2023-03-26T14:02:22;1.70;;;0.30;;
23990;SDS011;12205;50.600;4.608;2023-03-26T14:05:00;2.78;;;0.80;;
23990;SDS011;12205;50.600;4.608;2023-03-26T14:07:37;1.67;;;0.20;;
23990;SDS011;12205;50.600;4.608;2023-03-26T14:10:14;0.52;;;0.10;;
23990;SDS011;12205;50.600;4.608;2023-03-26T14:12:50;1.55;;;0.10;;
23990;SDS011;12205;50.600;4.608;2023-03-26T14:15:23;1.45;;;0.20;;
23990;SDS011;12205;50.600;4.608;2023-03-26T14:17:57;1.73;;;0.13;;
23990;SDS011;12205;50.600;4.608;2023-03-26T14:20:51;0.32;;;0.10;;
23990;SDS011;12205;50.600;4.608;2023-03-26T14:23:51;1.67;;;0.20;;
23990;SDS011;12205;50.600;4.608;2023-03-26T14:26:43;0.52;;;0.13;;
23990;SDS011;12205;50.600;4.608;2023-03-26T14:29:30;0.28;;;0.05;;
23990;SDS011;12205;50.600;4.608;2023-03-26T14:32:31;0.68;;;0.10;;
23990;SDS011;12205;50.600;4.608;2023-03-26T14:35:23;1.67;;;0.30;;
23990;SDS011;12205;50.600;4.608;2023-03-26T14:41:18;1.25;;;0.20;;
23990;SDS011;12205;50.600;4.608;2023-03-26T14:44:04;0.30;;;0.10;;
23990;SDS011;12205;50.600;4.608;2023-03-26T14:47:21;0.98;;;0.13;;
23990;SDS011;12205;50.600;4.608;2023-03-26T14:50:10;1.67;;;0.10;;
23990;SDS011;12205;50.600;4.608;2023-03-26T14:53:12;0.67;;;0.10;;
23990;SDS011;12205;50.600;4.608;2023-03-26T14:56:00;0.57;;;0.17;;
23990;SDS011;12205;50.600;4.608;2023-03-26T14:59:19;0.45;;;0.10;;
23990;SDS011;12205;50.600;4.608;2023-03-26T15:02:40;1.08;;;0.10;;
23990;SDS011;12205;50.600;4.608;2023-03-26T15:05:57;0.68;;;0.20;;
23990;SDS011;12205;50.600;4.608;2023-03-26T15:12:23;0.93;;;0.25;;
23990;SDS011;12205;50.600;4.608;2023-03-26T15:15:22;0.63;;;0.30;;
23990;SDS011;12205;50.600;4.608;2023-03-26T15:29:02;1.15;;;0.40;;
23990;SDS011;12205;50.600;4.608;2023-03-26T16:03:23;1.85;;;0.63;;
23990;SDS011;12205;50.600;4.608;2023-03-26T16:06:10;1.50;;;0.60;;
23990;SDS011;12205;50.600;4.608;2023-03-26T16:09:18;2.05;;;0.60;;
23990;SDS011;12205;50.600;4.608;2023-03-26T16:12:25;2.92;;;0.82;;
23990;SDS011;12205;50.600;4.608;2023-03-26T16:15:12;3.72;;;0.70;;
23990;SDS011;12205;50.600;4.608;2023-03-26T16:18:16;3.05;;;0.90;;
23990;SDS011;12205;50.600;4.608;2023-03-26T16:20:53;2.85;;;0.90;;
23990;SDS011;12205;50.600;4.608;2023-03-26T16:23:31;6.00;;;1.48;;
23990;SDS011;12205;50.600;4.608;2023-03-26T16:26:18;6.40;;;1.15;;
23990;SDS011;12205;50.600;4.608;2023-03-26T16:34:46;6.25;;;1.27;;
23990;SDS011;12205;50.600;4.608;2023-03-26T16:37:34;6.85;;;2.03;;
23990;SDS011;12205;50.600;4.608;2023-03-26T16:40:27;5.80;;;1.30;;
23990;SDS011;12205;50.600;4.608;2023-03-26T16:43:03;2.55;;;0.75;;
23990;SDS011;12205;50.600;4.608;2023-03-26T16:45:49;4.35;;;1.17;;
23990;SDS011;12205;50.600;4.608;2023-03-26T16:48:24;3.95;;;1.20;;
23990;SDS011;12205;50.600;4.608;2023-03-26T16:51:05;2.88;;;1.02;;
23990;SDS011;12205;50.600;4.608;2023-03-26T16:53:44;2.63;;;1.03;;
23990;SDS011;12205;50.600;4.608;2023-03-26T16:56:26;4.78;;;1.25;;
23990;SDS011;12205;50.600;4.608;2023-03-26T16:59:01;2.75;;;1.00;;
23990;SDS011;12205;50.600;4.608;2023-03-26T17:01:35;4.75;;;1.40;;
23990;SDS011;12205;50.600;4.608;2023-03-26T17:04:12;7.10;;;1.23;;
23990;SDS011;12205;50.600;4.608;2023-03-26T17:06:55;4.22;;;1.40;;
23990;SDS011;12205;50.600;4.608;2023-03-26T17:09:44;7.22;;;1.63;;
23990;SDS011;12205;50.600;4.608;2023-03-26T17:12:27;5.53;;;1.40;;
23990;SDS011;12205;50.600;4.608;2023-03-26T17:15:06;11.32;;;1.75;;
23990;SDS011;12205;50.600;4.608;2023-03-26T17:17:52;8.77;;;1.67;;
23990;SDS011;12205;50.600;4.608;2023-03-26T17:20:38;8.00;;;2.67;;
23990;SDS011;12205;50.600;4.608;2023-03-26T17:23:28;12.85;;;2.70;;
23990;SDS011;12205;50.600;4.608;2023-03-26T17:26:20;8.90;;;1.90;;
23990;SDS011;12205;50.600;4.608;2023-03-26T17:29:15;8.52;;;1.80;;
23990;SDS011;12205;50.600;4.608;2023-03-26T17:31:57;13.82;;;2.47;;
23990;SDS011;12205;50.600;4.608;2023-03-26T17:37:30;15.20;;;2.40;;